Terminal Aerodrome Forecast
Issued by NWS

Home | Current Version | Previous Version | Text Only | Print | Product List | Glossary On
Versions: 1 2 3 4 5 6 7 8 9 10 11 12 13 14 15 16 17 18 19 20 21 22 23 24 25
000
FTUS43 KTOP 181100 CCA
TAFFOE
TAF COR
KFOE 181155Z 1812/1912 09006KT 6SM BR BKN006
     FM181400 10008KT P6SM SCT025 SCT150
     FM181600 11009KT P6SM SCT150
     FM190800 13006KT 4SM BR BKN005=

USA.gov is the U.S. government's official web portal to all federal, state and local government web resources and services.